sensor_id;sensor_type;location;lat;lon;timestamp;P1;durP1;ratioP1;P2;durP2;ratioP2
5710;SDS011;61291;52.524;13.422;2022-09-09T00:00:23;107.93;;;74.70;;
5710;SDS011;61291;52.524;13.422;2022-09-09T00:03:02;107.07;;;74.80;;
5710;SDS011;61291;52.524;13.422;2022-09-09T00:06:28;101.23;;;74.40;;
5710;SDS011;61291;52.524;13.422;2022-09-09T00:09:18;96.63;;;71.87;;
5710;SDS011;61291;52.524;13.422;2022-09-09T00:11:42;104.93;;;76.70;;
5710;SDS011;61291;52.524;13.422;2022-09-09T00:16:49;105.00;;;74.50;;
5710;SDS011;61291;52.524;13.422;2022-09-09T00:19:22;108.93;;;74.50;;
5710;SDS011;61291;52.524;13.422;2022-09-09T00:21:58;94.90;;;75.23;;
5710;SDS011;61291;52.524;13.422;2022-09-09T00:24:39;87.57;;;72.03;;
5710;SDS011;61291;52.524;13.422;2022-09-09T00:27:09;94.17;;;71.03;;
5710;SDS011;61291;52.524;13.422;2022-09-09T00:29:45;103.93;;;73.70;;
5710;SDS011;61291;52.524;13.422;2022-09-09T00:32:22;90.20;;;73.70;;
5710;SDS011;61291;52.524;13.422;2022-09-09T00:34:53;95.87;;;73.40;;
5710;SDS011;61291;52.524;13.422;2022-09-09T00:37:24;96.00;;;73.73;;
5710;SDS011;61291;52.524;13.422;2022-09-09T00:39:51;98.83;;;75.30;;
5710;SDS011;61291;52.524;13.422;2022-09-09T00:42:31;100.87;;;74.50;;
5710;SDS011;61291;52.524;13.422;2022-09-09T00:45:12;95.17;;;71.27;;
5710;SDS011;61291;52.524;13.422;2022-09-09T00:48:00;97.87;;;73.97;;
5710;SDS011;61291;52.524;13.422;2022-09-09T00:50:53;104.40;;;74.87;;
5710;SDS011;61291;52.524;13.422;2022-09-09T00:53:35;101.30;;;75.30;;
5710;SDS011;61291;52.524;13.422;2022-09-09T00:56:14;96.23;;;73.60;;
5710;SDS011;61291;52.524;13.422;2022-09-09T00:58:49;115.00;;;75.93;;
5710;SDS011;61291;52.524;13.422;2022-09-09T01:01:45;94.70;;;73.93;;
5710;SDS011;61291;52.524;13.422;2022-09-09T01:04:15;96.73;;;73.37;;
5710;SDS011;61291;52.524;13.422;2022-09-09T01:06:45;95.67;;;76.63;;
5710;SDS011;61291;52.524;13.422;2022-09-09T01:12:15;99.60;;;75.10;;
5710;SDS011;61291;52.524;13.422;2022-09-09T01:14:50;105.67;;;77.70;;
5710;SDS011;61291;52.524;13.422;2022-09-09T01:17:25;110.18;;;79.40;;
5710;SDS011;61291;52.524;13.422;2022-09-09T01:19:57;115.10;;;81.60;;
5710;SDS011;61291;52.524;13.422;2022-09-09T01:25:19;108.27;;;80.90;;
5710;SDS011;61291;52.524;13.422;2022-09-09T01:27:54;110.90;;;80.00;;
5710;SDS011;61291;52.524;13.422;2022-09-09T01:30:23;102.63;;;78.47;;
5710;SDS011;61291;52.524;13.422;2022-09-09T01:32:51;107.27;;;81.40;;
5710;SDS011;61291;52.524;13.422;2022-09-09T01:35:27;101.53;;;79.00;;
5710;SDS011;61291;52.524;13.422;2022-09-09T01:38:15;109.10;;;75.77;;
5710;SDS011;61291;52.524;13.422;2022-09-09T01:40:42;107.97;;;81.03;;
5710;SDS011;61291;52.524;13.422;2022-09-09T01:43:08;105.20;;;78.43;;
5710;SDS011;61291;52.524;13.422;2022-09-09T01:45:34;100.23;;;79.97;;
5710;SDS011;61291;52.524;13.422;2022-09-09T01:48:00;118.90;;;83.80;;
5710;SDS011;61291;52.524;13.422;2022-09-09T01:50:28;112.17;;;79.87;;
5710;SDS011;61291;52.524;13.422;2022-09-09T01:52:54;102.20;;;76.87;;
5710;SDS011;61291;52.524;13.422;2022-09-09T01:55:32;96.00;;;73.77;;
5710;SDS011;61291;52.524;13.422;2022-09-09T01:58:09;98.20;;;74.67;;
5710;SDS011;61291;52.524;13.422;2022-09-09T02:01:01;102.10;;;73.73;;
5710;SDS011;61291;52.524;13.422;2022-09-09T02:03:31;109.50;;;75.13;;
5710;SDS011;61291;52.524;13.422;2022-09-09T02:06:06;100.10;;;73.80;;
5710;SDS011;61291;52.524;13.422;2022-09-09T02:08:50;99.07;;;75.63;;
5710;SDS011;61291;52.524;13.422;2022-09-09T02:11:20;97.07;;;79.80;;
5710;SDS011;61291;52.524;13.422;2022-09-09T02:13:48;88.30;;;77.77;;
5710;SDS011;61291;52.524;13.422;2022-09-09T02:17:18;95.63;;;77.83;;
5710;SDS011;61291;52.524;13.422;2022-09-09T02:19:32;99.97;;;79.70;;
5710;SDS011;61291;52.524;13.422;2022-09-09T02:22:00;100.63;;;79.80;;
5710;SDS011;61291;52.524;13.422;2022-09-09T02:24:27;105.83;;;86.90;;
5710;SDS011;61291;52.524;13.422;2022-09-09T02:26:56;104.13;;;81.53;;
5710;SDS011;61291;52.524;13.422;2022-09-09T02:29:28;97.20;;;80.97;;
5710;SDS011;61291;52.524;13.422;2022-09-09T02:32:00;117.97;;;81.75;;
5710;SDS011;61291;52.524;13.422;2022-09-09T02:34:29;112.60;;;82.50;;
5710;SDS011;61291;52.524;13.422;2022-09-09T02:36:59;105.00;;;80.57;;
5710;SDS011;61291;52.524;13.422;2022-09-09T02:39:26;99.80;;;79.70;;
5710;SDS011;61291;52.524;13.422;2022-09-09T02:41:52;104.77;;;79.97;;
5710;SDS011;61291;52.524;13.422;2022-09-09T02:44:18;101.93;;;82.30;;
5710;SDS011;61291;52.524;13.422;2022-09-09T02:47:00;110.37;;;82.47;;
5710;SDS011;61291;52.524;13.422;2022-09-09T02:52:15;110.73;;;89.00;;
5710;SDS011;61291;52.524;13.422;2022-09-09T02:54:45;99.57;;;85.50;;
5710;SDS011;61291;52.524;13.422;2022-09-09T02:57:17;107.23;;;82.20;;
5710;SDS011;61291;52.524;13.422;2022-09-09T02:59:47;97.97;;;79.17;;
5710;SDS011;61291;52.524;13.422;2022-09-09T03:02:14;100.23;;;81.83;;
5710;SDS011;61291;52.524;13.422;2022-09-09T03:04:39;113.90;;;79.87;;
5710;SDS011;61291;52.524;13.422;2022-09-09T03:07:06;90.73;;;74.27;;
5710;SDS011;61291;52.524;13.422;2022-09-09T03:09:32;90.50;;;76.10;;
5710;SDS011;61291;52.524;13.422;2022-09-09T03:11:58;113.73;;;79.33;;
5710;SDS011;61291;52.524;13.422;2022-09-09T03:14:24;95.50;;;77.20;;
5710;SDS011;61291;52.524;13.422;2022-09-09T03:16:53;92.00;;;74.37;;
5710;SDS011;61291;52.524;13.422;2022-09-09T03:19:19;96.63;;;79.70;;
5710;SDS011;61291;52.524;13.422;2022-09-09T03:21:46;108.70;;;80.00;;
5710;SDS011;61291;52.524;13.422;2022-09-09T03:24:13;99.03;;;77.80;;
5710;SDS011;61291;52.524;13.422;2022-09-09T03:26:39;109.70;;;80.60;;
5710;SDS011;61291;52.524;13.422;2022-09-09T03:29:05;88.80;;;74.13;;
5710;SDS011;61291;52.524;13.422;2022-09-09T03:31:32;99.67;;;75.20;;
5710;SDS011;61291;52.524;13.422;2022-09-09T03:33:59;98.40;;;78.57;;
5710;SDS011;61291;52.524;13.422;2022-09-09T03:36:25;88.80;;;79.20;;
5710;SDS011;61291;52.524;13.422;2022-09-09T03:38:51;93.13;;;83.00;;
5710;SDS011;61291;52.524;13.422;2022-09-09T03:41:18;112.93;;;84.90;;
5710;SDS011;61291;52.524;13.422;2022-09-09T03:43:44;95.60;;;76.97;;
5710;SDS011;61291;52.524;13.422;2022-09-09T03:46:09;98.87;;;78.50;;
5710;SDS011;61291;52.524;13.422;2022-09-09T03:48:35;92.80;;;77.43;;
5710;SDS011;61291;52.524;13.422;2022-09-09T03:51:00;94.63;;;72.73;;
5710;SDS011;61291;52.524;13.422;2022-09-09T03:53:26;98.40;;;77.80;;
5710;SDS011;61291;52.524;13.422;2022-09-09T03:55:53;87.73;;;77.03;;
5710;SDS011;61291;52.524;13.422;2022-09-09T03:58:21;87.13;;;75.00;;
5710;SDS011;61291;52.524;13.422;2022-09-09T04:01:02;101.32;;;73.40;;
5710;SDS011;61291;52.524;13.422;2022-09-09T04:03:30;96.70;;;77.37;;
5710;SDS011;61291;52.524;13.422;2022-09-09T04:05:56;96.73;;;80.63;;
5710;SDS011;61291;52.524;13.422;2022-09-09T04:08:23;97.77;;;76.70;;
5710;SDS011;61291;52.524;13.422;2022-09-09T04:10:52;91.90;;;79.13;;
5710;SDS011;61291;52.524;13.422;2022-09-09T04:13:22;93.82;;;76.95;;
5710;SDS011;61291;52.524;13.422;2022-09-09T04:15:54;98.60;;;87.90;;
5710;SDS011;61291;52.524;13.422;2022-09-09T04:18:20;100.53;;;83.77;;
5710;SDS011;61291;52.524;13.422;2022-09-09T04:20:47;97.67;;;82.60;;
5710;SDS011;61291;52.524;13.422;2022-09-09T04:23:14;108.97;;;85.73;;
5710;SDS011;61291;52.524;13.422;2022-09-09T04:25:49;92.13;;;79.10;;
5710;SDS011;61291;52.524;13.422;2022-09-09T04:28:17;92.40;;;81.73;;
5710;SDS011;61291;52.524;13.422;2022-09-09T04:30:44;91.00;;;81.43;;
5710;SDS011;61291;52.524;13.422;2022-09-09T04:33:10;103.10;;;86.97;;
5710;SDS011;61291;52.524;13.422;2022-09-09T04:35:37;87.20;;;77.77;;
5710;SDS011;61291;52.524;13.422;2022-09-09T04:38:03;95.23;;;83.17;;
5710;SDS011;61291;52.524;13.422;2022-09-09T04:40:30;83.37;;;74.13;;
5710;SDS011;61291;52.524;13.422;2022-09-09T04:43:00;93.80;;;84.17;;
5710;SDS011;61291;52.524;13.422;2022-09-09T04:45:26;95.03;;;79.83;;
5710;SDS011;61291;52.524;13.422;2022-09-09T04:47:52;92.50;;;82.30;;
5710;SDS011;61291;52.524;13.422;2022-09-09T04:50:19;98.00;;;81.13;;
5710;SDS011;61291;52.524;13.422;2022-09-09T04:52:45;84.90;;;76.23;;
5710;SDS011;61291;52.524;13.422;2022-09-09T04:55:11;92.23;;;82.63;;
5710;SDS011;61291;52.524;13.422;2022-09-09T04:57:37;88.73;;;79.50;;
5710;SDS011;61291;52.524;13.422;2022-09-09T05:00:03;88.63;;;79.10;;
5710;SDS011;61291;52.524;13.422;2022-09-09T05:02:29;89.13;;;79.43;;
5710;SDS011;61291;52.524;13.422;2022-09-09T05:04:55;87.03;;;78.27;;
5710;SDS011;61291;52.524;13.422;2022-09-09T05:07:21;92.03;;;79.97;;
5710;SDS011;61291;52.524;13.422;2022-09-09T05:09:46;93.80;;;84.30;;
5710;SDS011;61291;52.524;13.422;2022-09-09T05:12:14;86.87;;;77.57;;
5710;SDS011;61291;52.524;13.422;2022-09-09T05:14:41;88.83;;;79.73;;
5710;SDS011;61291;52.524;13.422;2022-09-09T05:17:07;81.93;;;74.83;;
5710;SDS011;61291;52.524;13.422;2022-09-09T05:19:32;92.70;;;80.87;;
5710;SDS011;61291;52.524;13.422;2022-09-09T05:21:58;82.73;;;74.90;;
5710;SDS011;61291;52.524;13.422;2022-09-09T05:24:24;85.83;;;77.80;;
5710;SDS011;61291;52.524;13.422;2022-09-09T05:26:49;89.30;;;79.80;;
5710;SDS011;61291;52.524;13.422;2022-09-09T05:29:15;78.97;;;72.07;;
5710;SDS011;61291;52.524;13.422;2022-09-09T05:31:44;80.30;;;72.50;;
5710;SDS011;61291;52.524;13.422;2022-09-09T05:34:10;82.77;;;75.10;;
5710;SDS011;61291;52.524;13.422;2022-09-09T05:36:36;80.47;;;73.67;;
5710;SDS011;61291;52.524;13.422;2022-09-09T05:39:01;79.43;;;72.03;;
5710;SDS011;61291;52.524;13.422;2022-09-09T05:41:27;78.73;;;72.20;;
5710;SDS011;61291;52.524;13.422;2022-09-09T05:43:53;72.28;;;65.40;;
5710;SDS011;61291;52.524;13.422;2022-09-09T05:46:20;76.03;;;70.23;;
5710;SDS011;61291;52.524;13.422;2022-09-09T05:48:52;77.70;;;71.30;;
5710;SDS011;61291;52.524;13.422;2022-09-09T05:51:19;78.70;;;72.47;;
5710;SDS011;61291;52.524;13.422;2022-09-09T05:53:47;76.93;;;70.47;;
5710;SDS011;61291;52.524;13.422;2022-09-09T05:56:14;78.77;;;72.90;;
5710;SDS011;61291;52.524;13.422;2022-09-09T05:58:42;79.57;;;73.67;;
5710;SDS011;61291;52.524;13.422;2022-09-09T06:01:13;76.83;;;70.93;;
5710;SDS011;61291;52.524;13.422;2022-09-09T06:03:40;73.97;;;68.37;;
5710;SDS011;61291;52.524;13.422;2022-09-09T06:06:08;73.23;;;67.70;;
5710;SDS011;61291;52.524;13.422;2022-09-09T06:08:38;76.03;;;70.00;;
5710;SDS011;61291;52.524;13.422;2022-09-09T06:11:09;77.07;;;70.77;;
5710;SDS011;61291;52.524;13.422;2022-09-09T06:13:37;70.83;;;64.73;;
5710;SDS011;61291;52.524;13.422;2022-09-09T06:16:04;75.90;;;70.43;;
5710;SDS011;61291;52.524;13.422;2022-09-09T06:18:32;75.70;;;70.10;;
5710;SDS011;61291;52.524;13.422;2022-09-09T06:20:58;65.73;;;60.73;;
5710;SDS011;61291;52.524;13.422;2022-09-09T06:23:31;68.53;;;63.17;;
5710;SDS011;61291;52.524;13.422;2022-09-09T06:26:03;71.93;;;66.67;;
5710;SDS011;61291;52.524;13.422;2022-09-09T06:28:31;74.37;;;68.37;;
5710;SDS011;61291;52.524;13.422;2022-09-09T06:31:00;74.23;;;68.30;;
5710;SDS011;61291;52.524;13.422;2022-09-09T06:33:30;74.90;;;69.60;;
5710;SDS011;61291;52.524;13.422;2022-09-09T06:35:57;73.60;;;67.90;;
5710;SDS011;61291;52.524;13.422;2022-09-09T06:38:23;74.90;;;68.80;;
5710;SDS011;61291;52.524;13.422;2022-09-09T06:40:54;87.50;;;80.43;;
5710;SDS011;61291;52.524;13.422;2022-09-09T06:43:21;88.90;;;81.60;;
5710;SDS011;61291;52.524;13.422;2022-09-09T06:45:54;84.23;;;77.83;;
5710;SDS011;61291;52.524;13.422;2022-09-09T06:48:30;87.00;;;79.90;;
5710;SDS011;61291;52.524;13.422;2022-09-09T06:51:09;85.00;;;78.50;;
5710;SDS011;61291;52.524;13.422;2022-09-09T06:53:40;80.33;;;73.83;;
5710;SDS011;61291;52.524;13.422;2022-09-09T06:58:42;84.20;;;76.63;;
5710;SDS011;61291;52.524;13.422;2022-09-09T07:01:09;72.70;;;66.70;;
5710;SDS011;61291;52.524;13.422;2022-09-09T07:03:37;84.77;;;77.73;;
5710;SDS011;61291;52.524;13.422;2022-09-09T07:06:03;86.03;;;78.93;;
5710;SDS011;61291;52.524;13.422;2022-09-09T07:08:30;85.30;;;78.10;;
5710;SDS011;61291;52.524;13.422;2022-09-09T07:11:01;67.97;;;61.67;;
5710;SDS011;61291;52.524;13.422;2022-09-09T07:13:29;67.07;;;61.90;;
5710;SDS011;61291;52.524;13.422;2022-09-09T07:15:55;67.53;;;61.90;;
5710;SDS011;61291;52.524;13.422;2022-09-09T07:18:32;70.13;;;63.97;;
5710;SDS011;61291;52.524;13.422;2022-09-09T07:20:58;69.23;;;63.53;;
5710;SDS011;61291;52.524;13.422;2022-09-09T07:23:24;69.33;;;63.93;;
5710;SDS011;61291;52.524;13.422;2022-09-09T07:25:50;69.00;;;62.90;;
5710;SDS011;61291;52.524;13.422;2022-09-09T07:28:17;68.33;;;62.50;;
5710;SDS011;61291;52.524;13.422;2022-09-09T07:30:45;70.63;;;64.80;;
5710;SDS011;61291;52.524;13.422;2022-09-09T07:33:18;65.67;;;60.40;;
5710;SDS011;61291;52.524;13.422;2022-09-09T07:35:44;66.57;;;61.17;;
5710;SDS011;61291;52.524;13.422;2022-09-09T07:38:10;71.30;;;65.40;;
5710;SDS011;61291;52.524;13.422;2022-09-09T07:40:36;70.10;;;64.13;;
5710;SDS011;61291;52.524;13.422;2022-09-09T07:43:02;67.83;;;62.30;;
5710;SDS011;61291;52.524;13.422;2022-09-09T07:45:27;64.90;;;59.60;;
5710;SDS011;61291;52.524;13.422;2022-09-09T07:47:53;60.63;;;55.53;;
5710;SDS011;61291;52.524;13.422;2022-09-09T07:50:21;63.17;;;58.27;;
5710;SDS011;61291;52.524;13.422;2022-09-09T07:52:48;60.23;;;54.80;;
5710;SDS011;61291;52.524;13.422;2022-09-09T07:55:14;59.20;;;54.10;;
5710;SDS011;61291;52.524;13.422;2022-09-09T07:57:40;62.13;;;56.90;;
5710;SDS011;61291;52.524;13.422;2022-09-09T08:00:06;64.00;;;58.70;;
5710;SDS011;61291;52.524;13.422;2022-09-09T08:02:32;66.40;;;60.70;;
5710;SDS011;61291;52.524;13.422;2022-09-09T08:04:57;60.10;;;54.90;;
5710;SDS011;61291;52.524;13.422;2022-09-09T08:07:23;64.83;;;58.73;;
5710;SDS011;61291;52.524;13.422;2022-09-09T08:09:49;64.40;;;59.00;;
5710;SDS011;61291;52.524;13.422;2022-09-09T08:12:14;67.90;;;60.60;;
5710;SDS011;61291;52.524;13.422;2022-09-09T08:14:41;61.13;;;55.97;;
5710;SDS011;61291;52.524;13.422;2022-09-09T08:17:09;56.28;;;51.28;;
5710;SDS011;61291;52.524;13.422;2022-09-09T08:19:35;64.47;;;58.27;;
5710;SDS011;61291;52.524;13.422;2022-09-09T08:22:01;62.30;;;57.30;;
5710;SDS011;61291;52.524;13.422;2022-09-09T08:24:27;62.13;;;56.80;;
5710;SDS011;61291;52.524;13.422;2022-09-09T08:26:53;66.73;;;61.20;;
5710;SDS011;61291;52.524;13.422;2022-09-09T08:29:19;64.50;;;59.10;;
5710;SDS011;61291;52.524;13.422;2022-09-09T08:31:46;64.23;;;58.60;;
5710;SDS011;61291;52.524;13.422;2022-09-09T08:34:13;66.23;;;60.77;;
5710;SDS011;61291;52.524;13.422;2022-09-09T08:36:41;68.60;;;62.77;;
5710;SDS011;61291;52.524;13.422;2022-09-09T08:39:09;67.77;;;62.67;;
5710;SDS011;61291;52.524;13.422;2022-09-09T08:44:50;66.50;;;61.00;;
5710;SDS011;61291;52.524;13.422;2022-09-09T08:47:44;66.00;;;60.47;;
5710;SDS011;61291;52.524;13.422;2022-09-09T08:50:37;66.00;;;60.53;;
5710;SDS011;61291;52.524;13.422;2022-09-09T08:53:16;66.50;;;60.80;;
5710;SDS011;61291;52.524;13.422;2022-09-09T08:55:50;67.20;;;61.30;;
5710;SDS011;61291;52.524;13.422;2022-09-09T08:58:29;66.80;;;61.80;;
5710;SDS011;61291;52.524;13.422;2022-09-09T09:03:54;66.67;;;61.07;;
5710;SDS011;61291;52.524;13.422;2022-09-09T09:09:07;74.30;;;68.43;;
5710;SDS011;61291;52.524;13.422;2022-09-09T09:11:44;74.13;;;68.33;;
5710;SDS011;61291;52.524;13.422;2022-09-09T09:14:17;66.83;;;61.53;;
5710;SDS011;61291;52.524;13.422;2022-09-09T09:16:50;67.77;;;62.63;;
5710;SDS011;61291;52.524;13.422;2022-09-09T09:19:21;65.07;;;59.20;;
5710;SDS011;61291;52.524;13.422;2022-09-09T09:21:50;60.40;;;55.47;;
5710;SDS011;61291;52.524;13.422;2022-09-09T09:24:51;67.13;;;60.90;;
5710;SDS011;61291;52.524;13.422;2022-09-09T09:27:22;61.63;;;56.35;;
5710;SDS011;61291;52.524;13.422;2022-09-09T09:29:50;69.43;;;63.60;;
5710;SDS011;61291;52.524;13.422;2022-09-09T09:32:19;73.33;;;66.23;;
5710;SDS011;61291;52.524;13.422;2022-09-09T09:34:54;70.67;;;64.90;;
5710;SDS011;61291;52.524;13.422;2022-09-09T09:37:26;64.70;;;59.00;;
5710;SDS011;61291;52.524;13.422;2022-09-09T09:39:54;68.63;;;63.00;;
5710;SDS011;61291;52.524;13.422;2022-09-09T09:42:19;69.07;;;63.43;;
5710;SDS011;61291;52.524;13.422;2022-09-09T09:44:45;67.63;;;61.90;;
5710;SDS011;61291;52.524;13.422;2022-09-09T09:47:11;72.00;;;65.37;;
5710;SDS011;61291;52.524;13.422;2022-09-09T09:49:39;70.57;;;64.03;;
5710;SDS011;61291;52.524;13.422;2022-09-09T09:52:16;67.00;;;61.10;;
5710;SDS011;61291;52.524;13.422;2022-09-09T09:54:45;65.10;;;59.10;;
5710;SDS011;61291;52.524;13.422;2022-09-09T09:57:12;69.97;;;63.77;;
5710;SDS011;61291;52.524;13.422;2022-09-09T09:59:40;69.13;;;63.00;;
5710;SDS011;61291;52.524;13.422;2022-09-09T10:04:38;71.77;;;65.90;;
5710;SDS011;61291;52.524;13.422;2022-09-09T10:07:09;65.47;;;59.97;;
5710;SDS011;61291;52.524;13.422;2022-09-09T10:09:42;72.60;;;66.30;;
5710;SDS011;61291;52.524;13.422;2022-09-09T10:14:42;68.10;;;62.50;;
5710;SDS011;61291;52.524;13.422;2022-09-09T10:17:34;70.07;;;63.80;;
5710;SDS011;61291;52.524;13.422;2022-09-09T10:29:01;67.43;;;61.73;;
5710;SDS011;61291;52.524;13.422;2022-09-09T10:31:37;74.30;;;67.73;;
5710;SDS011;61291;52.524;13.422;2022-09-09T10:34:21;63.47;;;57.80;;
5710;SDS011;61291;52.524;13.422;2022-09-09T10:37:11;65.90;;;60.27;;
5710;SDS011;61291;52.524;13.422;2022-09-09T10:39:51;69.77;;;64.27;;
5710;SDS011;61291;52.524;13.422;2022-09-09T10:42:30;72.93;;;66.73;;
5710;SDS011;61291;52.524;13.422;2022-09-09T10:44:59;70.53;;;64.50;;
5710;SDS011;61291;52.524;13.422;2022-09-09T10:47:49;67.23;;;61.20;;
5710;SDS011;61291;52.524;13.422;2022-09-09T10:50:52;60.83;;;55.72;;
5710;SDS011;61291;52.524;13.422;2022-09-09T10:53:35;64.80;;;59.10;;
5710;SDS011;61291;52.524;13.422;2022-09-09T10:56:20;67.07;;;61.47;;
5710;SDS011;61291;52.524;13.422;2022-09-09T10:58:50;69.73;;;63.47;;
5710;SDS011;61291;52.524;13.422;2022-09-09T11:01:25;63.90;;;58.70;;
5710;SDS011;61291;52.524;13.422;2022-09-09T11:03:57;68.30;;;62.80;;
5710;SDS011;61291;52.524;13.422;2022-09-09T11:06:32;67.40;;;61.40;;
5710;SDS011;61291;52.524;13.422;2022-09-09T11:09:03;74.17;;;68.03;;
5710;SDS011;61291;52.524;13.422;2022-09-09T11:11:39;61.80;;;56.50;;
5710;SDS011;61291;52.524;13.422;2022-09-09T11:14:12;68.50;;;62.40;;
5710;SDS011;61291;52.524;13.422;2022-09-09T11:21:52;68.80;;;63.10;;
5710;SDS011;61291;52.524;13.422;2022-09-09T11:24:36;67.20;;;61.43;;
5710;SDS011;61291;52.524;13.422;2022-09-09T11:27:08;64.23;;;58.70;;
5710;SDS011;61291;52.524;13.422;2022-09-09T11:30:15;64.00;;;59.10;;
5710;SDS011;61291;52.524;13.422;2022-09-09T11:35:39;63.23;;;57.63;;
5710;SDS011;61291;52.524;13.422;2022-09-09T11:41:10;70.00;;;63.60;;
5710;SDS011;61291;52.524;13.422;2022-09-09T11:43:40;70.77;;;64.23;;
5710;SDS011;61291;52.524;13.422;2022-09-09T11:46:12;61.85;;;56.45;;
5710;SDS011;61291;52.524;13.422;2022-09-09T11:48:41;70.57;;;64.90;;
5710;SDS011;61291;52.524;13.422;2022-09-09T11:51:10;70.87;;;65.47;;
5710;SDS011;61291;52.524;13.422;2022-09-09T11:53:53;75.40;;;69.13;;
5710;SDS011;61291;52.524;13.422;2022-09-09T11:56:33;70.77;;;64.97;;
5710;SDS011;61291;52.524;13.422;2022-09-09T11:59:25;70.67;;;63.40;;
5710;SDS011;61291;52.524;13.422;2022-09-09T12:01:57;74.50;;;68.70;;
5710;SDS011;61291;52.524;13.422;2022-09-09T12:06:53;73.03;;;67.20;;
5710;SDS011;61291;52.524;13.422;2022-09-09T12:09:46;68.83;;;63.20;;
5710;SDS011;61291;52.524;13.422;2022-09-09T12:12:27;74.33;;;68.83;;
5710;SDS011;61291;52.524;13.422;2022-09-09T12:17:36;67.33;;;61.93;;
5710;SDS011;61291;52.524;13.422;2022-09-09T12:22:51;71.27;;;65.47;;
5710;SDS011;61291;52.524;13.422;2022-09-09T12:28:43;67.83;;;62.43;;
5710;SDS011;61291;52.524;13.422;2022-09-09T12:34:31;57.78;;;53.33;;
5710;SDS011;61291;52.524;13.422;2022-09-09T12:37:15;63.07;;;58.27;;
5710;SDS011;61291;52.524;13.422;2022-09-09T12:39:50;64.97;;;60.37;;
5710;SDS011;61291;52.524;13.422;2022-09-09T12:42:20;64.43;;;59.77;;
5710;SDS011;61291;52.524;13.422;2022-09-09T12:44:51;66.77;;;61.60;;
5710;SDS011;61291;52.524;13.422;2022-09-09T12:47:18;66.20;;;61.60;;
5710;SDS011;61291;52.524;13.422;2022-09-09T12:49:46;67.43;;;62.27;;
5710;SDS011;61291;52.524;13.422;2022-09-09T12:52:17;65.10;;;60.20;;
5710;SDS011;61291;52.524;13.422;2022-09-09T12:54:58;65.57;;;61.10;;
5710;SDS011;61291;52.524;13.422;2022-09-09T12:57:33;66.40;;;61.23;;
5710;SDS011;61291;52.524;13.422;2022-09-09T13:00:05;64.83;;;60.20;;
5710;SDS011;61291;52.524;13.422;2022-09-09T13:02:44;65.17;;;60.23;;
5710;SDS011;61291;52.524;13.422;2022-09-09T13:05:15;65.10;;;60.40;;
5710;SDS011;61291;52.524;13.422;2022-09-09T13:07:52;65.40;;;60.17;;
5710;SDS011;61291;52.524;13.422;2022-09-09T13:10:27;67.00;;;61.63;;
5710;SDS011;61291;52.524;13.422;2022-09-09T13:12:57;66.10;;;61.20;;
5710;SDS011;61291;52.524;13.422;2022-09-09T13:15:23;64.87;;;60.27;;
5710;SDS011;61291;52.524;13.422;2022-09-09T13:17:56;64.97;;;59.80;;
5710;SDS011;61291;52.524;13.422;2022-09-09T13:20:24;61.80;;;56.60;;
5710;SDS011;61291;52.524;13.422;2022-09-09T13:22:50;61.60;;;56.87;;
5710;SDS011;61291;52.524;13.422;2022-09-09T13:25:25;63.80;;;58.90;;
5710;SDS011;61291;52.524;13.422;2022-09-09T13:30:25;59.50;;;54.63;;
5710;SDS011;61291;52.524;13.422;2022-09-09T13:35:30;63.87;;;59.07;;
5710;SDS011;61291;52.524;13.422;2022-09-09T13:37:56;65.20;;;60.23;;
5710;SDS011;61291;52.524;13.422;2022-09-09T13:40:23;61.73;;;56.20;;
5710;SDS011;61291;52.524;13.422;2022-09-09T13:42:54;60.00;;;55.07;;
5710;SDS011;61291;52.524;13.422;2022-09-09T13:45:22;60.10;;;55.00;;
5710;SDS011;61291;52.524;13.422;2022-09-09T13:47:51;61.50;;;56.40;;
5710;SDS011;61291;52.524;13.422;2022-09-09T13:52:46;54.73;;;48.97;;
5710;SDS011;61291;52.524;13.422;2022-09-09T13:55:12;58.67;;;53.87;;
5710;SDS011;61291;52.524;13.422;2022-09-09T13:57:38;58.60;;;54.10;;
5710;SDS011;61291;52.524;13.422;2022-09-09T14:00:03;56.10;;;51.30;;
5710;SDS011;61291;52.524;13.422;2022-09-09T14:02:30;58.50;;;54.30;;
5710;SDS011;61291;52.524;13.422;2022-09-09T14:04:56;59.07;;;54.37;;
5710;SDS011;61291;52.524;13.422;2022-09-09T14:07:21;55.83;;;51.33;;
5710;SDS011;61291;52.524;13.422;2022-09-09T14:09:47;57.13;;;52.53;;
5710;SDS011;61291;52.524;13.422;2022-09-09T14:12:15;56.37;;;51.97;;
5710;SDS011;61291;52.524;13.422;2022-09-09T14:14:41;61.10;;;56.50;;
5710;SDS011;61291;52.524;13.422;2022-09-09T14:17:07;63.77;;;57.37;;
5710;SDS011;61291;52.524;13.422;2022-09-09T14:19:33;59.47;;;54.40;;
5710;SDS011;61291;52.524;13.422;2022-09-09T14:21:59;59.40;;;54.30;;
5710;SDS011;61291;52.524;13.422;2022-09-09T14:24:25;59.13;;;53.83;;
5710;SDS011;61291;52.524;13.422;2022-09-09T14:26:50;62.63;;;57.77;;
5710;SDS011;61291;52.524;13.422;2022-09-09T14:29:16;59.43;;;54.37;;
5710;SDS011;61291;52.524;13.422;2022-09-09T14:31:42;60.90;;;56.10;;
5710;SDS011;61291;52.524;13.422;2022-09-09T14:34:07;57.27;;;52.30;;
5710;SDS011;61291;52.524;13.422;2022-09-09T14:36:35;59.53;;;54.40;;
5710;SDS011;61291;52.524;13.422;2022-09-09T14:39:01;58.83;;;54.00;;
5710;SDS011;61291;52.524;13.422;2022-09-09T14:41:27;58.50;;;54.20;;
5710;SDS011;61291;52.524;13.422;2022-09-09T14:43:54;58.03;;;53.30;;
5710;SDS011;61291;52.524;13.422;2022-09-09T14:46:19;57.53;;;52.90;;
5710;SDS011;61291;52.524;13.422;2022-09-09T14:48:45;57.77;;;52.73;;
5710;SDS011;61291;52.524;13.422;2022-09-09T14:51:20;56.37;;;51.97;;
5710;SDS011;61291;52.524;13.422;2022-09-09T14:53:53;61.23;;;56.80;;
5710;SDS011;61291;52.524;13.422;2022-09-09T14:56:21;62.93;;;58.13;;
5710;SDS011;61291;52.524;13.422;2022-09-09T14:58:49;62.20;;;57.60;;
5710;SDS011;61291;52.524;13.422;2022-09-09T15:01:17;58.37;;;53.67;;
5710;SDS011;61291;52.524;13.422;2022-09-09T15:03:48;61.13;;;56.10;;
5710;SDS011;61291;52.524;13.422;2022-09-09T15:06:16;63.37;;;58.77;;
5710;SDS011;61291;52.524;13.422;2022-09-09T15:08:42;56.73;;;52.53;;
5710;SDS011;61291;52.524;13.422;2022-09-09T15:11:10;57.73;;;53.43;;
5710;SDS011;61291;52.524;13.422;2022-09-09T15:13:37;60.30;;;55.87;;
5710;SDS011;61291;52.524;13.422;2022-09-09T15:16:05;57.00;;;53.10;;
5710;SDS011;61291;52.524;13.422;2022-09-09T15:18:35;63.77;;;59.20;;
5710;SDS011;61291;52.524;13.422;2022-09-09T15:21:01;57.40;;;53.20;;
5710;SDS011;61291;52.524;13.422;2022-09-09T15:23:32;66.90;;;61.83;;
5710;SDS011;61291;52.524;13.422;2022-09-09T15:25:58;67.30;;;62.50;;
5710;SDS011;61291;52.524;13.422;2022-09-09T15:28:24;61.63;;;56.80;;
5710;SDS011;61291;52.524;13.422;2022-09-09T15:30:50;60.43;;;56.33;;
5710;SDS011;61291;52.524;13.422;2022-09-09T15:33:18;64.23;;;59.73;;
5710;SDS011;61291;52.524;13.422;2022-09-09T15:35:45;56.67;;;52.70;;
5710;SDS011;61291;52.524;13.422;2022-09-09T15:38:10;58.87;;;54.63;;
5710;SDS011;61291;52.524;13.422;2022-09-09T15:40:38;60.17;;;56.00;;
5710;SDS011;61291;52.524;13.422;2022-09-09T15:43:04;60.57;;;56.17;;
5710;SDS011;61291;52.524;13.422;2022-09-09T15:45:31;58.10;;;53.80;;
5710;SDS011;61291;52.524;13.422;2022-09-09T15:47:58;63.80;;;58.40;;